sensor_id;sensor_type;location;lat;lon;timestamp;temperature;humidity
12384;DHT22;6256;63.808;20.336;2023-07-30T00:01:59;13.50;99.90
12384;DHT22;6256;63.808;20.336;2023-07-30T00:04:25;13.40;99.90
12384;DHT22;6256;63.808;20.336;2023-07-30T00:06:50;13.40;99.90
12384;DHT22;6256;63.808;20.336;2023-07-30T00:09:16;13.40;99.90
12384;DHT22;6256;63.808;20.336;2023-07-30T00:11:42;13.30;99.90
12384;DHT22;6256;63.808;20.336;2023-07-30T00:14:07;13.30;99.90
12384;DHT22;6256;63.808;20.336;2023-07-30T00:16:33;13.20;99.90
12384;DHT22;6256;63.808;20.336;2023-07-30T00:18:59;13.20;99.90
12384;DHT22;6256;63.808;20.336;2023-07-30T00:21:25;13.10;99.90
12384;DHT22;6256;63.808;20.336;2023-07-30T00:23:50;13.10;99.90
12384;DHT22;6256;63.808;20.336;2023-07-30T00:26:16;13.10;99.90
12384;DHT22;6256;63.808;20.336;2023-07-30T00:28:42;13.00;99.90
12384;DHT22;6256;63.808;20.336;2023-07-30T00:31:07;13.00;99.90
12384;DHT22;6256;63.808;20.336;2023-07-30T00:33:33;13.00;99.90
12384;DHT22;6256;63.808;20.336;2023-07-30T00:35:59;12.90;99.90
12384;DHT22;6256;63.808;20.336;2023-07-30T00:38:24;12.90;99.90
12384;DHT22;6256;63.808;20.336;2023-07-30T00:40:50;12.90;99.90
12384;DHT22;6256;63.808;20.336;2023-07-30T00:43:16;12.90;99.90
12384;DHT22;6256;63.808;20.336;2023-07-30T00:45:44;12.90;99.90
12384;DHT22;6256;63.808;20.336;2023-07-30T00:48:11;12.90;99.90
12384;DHT22;6256;63.808;20.336;2023-07-30T00:50:38;12.90;99.90
12384;DHT22;6256;63.808;20.336;2023-07-30T00:53:04;12.90;99.90
12384;DHT22;6256;63.808;20.336;2023-07-30T00:55:31;12.80;99.90
12384;DHT22;6256;63.808;20.336;2023-07-30T00:57:57;12.80;99.90
12384;DHT22;6256;63.808;20.336;2023-07-30T01:00:23;12.70;99.90
12384;DHT22;6256;63.808;20.336;2023-07-30T01:02:51;12.80;99.90
12384;DHT22;6256;63.808;20.336;2023-07-30T01:05:17;12.70;99.90
12384;DHT22;6256;63.808;20.336;2023-07-30T01:07:43;12.80;99.90
12384;DHT22;6256;63.808;20.336;2023-07-30T01:10:09;12.80;99.90
12384;DHT22;6256;63.808;20.336;2023-07-30T01:12:36;12.80;99.90
12384;DHT22;6256;63.808;20.336;2023-07-30T01:15:03;12.90;99.90
12384;DHT22;6256;63.808;20.336;2023-07-30T01:17:29;12.90;99.90
12384;DHT22;6256;63.808;20.336;2023-07-30T01:19:55;12.80;99.90
12384;DHT22;6256;63.808;20.336;2023-07-30T01:22:21;12.90;99.90
12384;DHT22;6256;63.808;20.336;2023-07-30T01:24:48;12.80;99.90
12384;DHT22;6256;63.808;20.336;2023-07-30T01:27:27;12.80;99.90
12384;DHT22;6256;63.808;20.336;2023-07-30T01:32:27;12.70;99.90
12384;DHT22;6256;63.808;20.336;2023-07-30T01:34:55;12.70;99.90
12384;DHT22;6256;63.808;20.336;2023-07-30T01:37:22;12.60;99.90
12384;DHT22;6256;63.808;20.336;2023-07-30T01:39:50;12.60;99.90
12384;DHT22;6256;63.808;20.336;2023-07-30T01:42:16;12.50;99.90
12384;DHT22;6256;63.808;20.336;2023-07-30T01:44:42;12.50;99.90
12384;DHT22;6256;63.808;20.336;2023-07-30T01:47:08;12.60;99.90
12384;DHT22;6256;63.808;20.336;2023-07-30T01:49:34;12.60;99.90
12384;DHT22;6256;63.808;20.336;2023-07-30T01:51:59;12.60;99.90
12384;DHT22;6256;63.808;20.336;2023-07-30T01:54:25;12.70;99.90
12384;DHT22;6256;63.808;20.336;2023-07-30T01:56:52;12.70;99.90
12384;DHT22;6256;63.808;20.336;2023-07-30T01:59:18;12.70;99.90
12384;DHT22;6256;63.808;20.336;2023-07-30T02:01:44;12.70;99.90
12384;DHT22;6256;63.808;20.336;2023-07-30T02:04:10;12.70;99.90
12384;DHT22;6256;63.808;20.336;2023-07-30T02:06:36;12.70;99.90
12384;DHT22;6256;63.808;20.336;2023-07-30T02:09:02;12.70;99.90
12384;DHT22;6256;63.808;20.336;2023-07-30T02:11:28;12.60;99.90
12384;DHT22;6256;63.808;20.336;2023-07-30T02:13:54;12.70;99.90
12384;DHT22;6256;63.808;20.336;2023-07-30T02:16:20;12.60;99.90
12384;DHT22;6256;63.808;20.336;2023-07-30T02:18:46;12.60;99.90
12384;DHT22;6256;63.808;20.336;2023-07-30T02:21:12;12.70;99.90
12384;DHT22;6256;63.808;20.336;2023-07-30T02:23:38;12.80;99.90
12384;DHT22;6256;63.808;20.336;2023-07-30T02:26:03;12.80;99.90
12384;DHT22;6256;63.808;20.336;2023-07-30T02:28:29;12.90;99.90
12384;DHT22;6256;63.808;20.336;2023-07-30T02:30:55;13.00;99.90
12384;DHT22;6256;63.808;20.336;2023-07-30T02:33:20;13.10;99.90
12384;DHT22;6256;63.808;20.336;2023-07-30T02:35:46;13.20;99.90
12384;DHT22;6256;63.808;20.336;2023-07-30T02:38:12;13.30;99.90
12384;DHT22;6256;63.808;20.336;2023-07-30T02:40:38;13.30;99.90
12384;DHT22;6256;63.808;20.336;2023-07-30T02:43:03;13.40;99.90
12384;DHT22;6256;63.808;20.336;2023-07-30T02:45:29;13.50;99.90
12384;DHT22;6256;63.808;20.336;2023-07-30T02:47:55;13.60;99.90
12384;DHT22;6256;63.808;20.336;2023-07-30T02:50:21;13.60;99.90
12384;DHT22;6256;63.808;20.336;2023-07-30T02:52:47;13.70;99.90
12384;DHT22;6256;63.808;20.336;2023-07-30T02:55:12;13.80;99.90
12384;DHT22;6256;63.808;20.336;2023-07-30T02:57:38;13.90;99.90
12384;DHT22;6256;63.808;20.336;2023-07-30T03:00:04;14.00;99.90
12384;DHT22;6256;63.808;20.336;2023-07-30T03:02:30;14.10;99.90
12384;DHT22;6256;63.808;20.336;2023-07-30T03:04:56;14.10;99.90
12384;DHT22;6256;63.808;20.336;2023-07-30T03:07:22;14.20;99.90
12384;DHT22;6256;63.808;20.336;2023-07-30T03:09:48;14.30;99.90
12384;DHT22;6256;63.808;20.336;2023-07-30T03:12:14;14.40;99.90
12384;DHT22;6256;63.808;20.336;2023-07-30T03:14:40;14.60;99.90
12384;DHT22;6256;63.808;20.336;2023-07-30T03:17:06;14.70;99.90
12384;DHT22;6256;63.808;20.336;2023-07-30T03:19:31;14.80;99.90
12384;DHT22;6256;63.808;20.336;2023-07-30T03:21:57;14.80;99.90
12384;DHT22;6256;63.808;20.336;2023-07-30T03:24:23;14.90;99.90
12384;DHT22;6256;63.808;20.336;2023-07-30T03:26:49;15.00;99.90
12384;DHT22;6256;63.808;20.336;2023-07-30T03:29:15;15.10;99.90
12384;DHT22;6256;63.808;20.336;2023-07-30T03:31:41;15.30;99.90
12384;DHT22;6256;63.808;20.336;2023-07-30T03:34:07;15.40;99.90
12384;DHT22;6256;63.808;20.336;2023-07-30T03:36:33;15.50;99.90
12384;DHT22;6256;63.808;20.336;2023-07-30T03:38:59;15.60;99.90
12384;DHT22;6256;63.808;20.336;2023-07-30T03:41:25;15.70;99.90
12384;DHT22;6256;63.808;20.336;2023-07-30T03:43:50;15.70;99.90
12384;DHT22;6256;63.808;20.336;2023-07-30T03:46:16;15.80;99.90
12384;DHT22;6256;63.808;20.336;2023-07-30T03:48:42;15.80;99.90
12384;DHT22;6256;63.808;20.336;2023-07-30T03:51:08;15.80;99.90
12384;DHT22;6256;63.808;20.336;2023-07-30T03:53:34;15.90;99.90
12384;DHT22;6256;63.808;20.336;2023-07-30T03:56:01;16.00;99.90
12384;DHT22;6256;63.808;20.336;2023-07-30T03:58:27;16.00;99.90
12384;DHT22;6256;63.808;20.336;2023-07-30T04:00:52;16.00;99.90
12384;DHT22;6256;63.808;20.336;2023-07-30T04:03:18;16.10;99.90
12384;DHT22;6256;63.808;20.336;2023-07-30T04:05:43;16.20;99.90
12384;DHT22;6256;63.808;20.336;2023-07-30T04:08:09;16.20;99.90
12384;DHT22;6256;63.808;20.336;2023-07-30T04:10:35;16.30;99.90
12384;DHT22;6256;63.808;20.336;2023-07-30T04:13:01;16.30;99.90
12384;DHT22;6256;63.808;20.336;2023-07-30T04:15:27;16.30;99.90
12384;DHT22;6256;63.808;20.336;2023-07-30T04:17:53;16.40;99.90
12384;DHT22;6256;63.808;20.336;2023-07-30T04:20:19;16.30;99.90
12384;DHT22;6256;63.808;20.336;2023-07-30T04:22:44;16.30;99.90
12384;DHT22;6256;63.808;20.336;2023-07-30T04:25:10;16.40;99.90
12384;DHT22;6256;63.808;20.336;2023-07-30T04:27:36;16.30;99.90
12384;DHT22;6256;63.808;20.336;2023-07-30T04:30:03;16.40;99.90
12384;DHT22;6256;63.808;20.336;2023-07-30T04:32:29;16.50;99.90
12384;DHT22;6256;63.808;20.336;2023-07-30T04:34:55;16.50;99.90
12384;DHT22;6256;63.808;20.336;2023-07-30T04:37:21;16.50;99.90
12384;DHT22;6256;63.808;20.336;2023-07-30T04:39:49;16.60;99.90
12384;DHT22;6256;63.808;20.336;2023-07-30T04:42:14;16.60;99.90
12384;DHT22;6256;63.808;20.336;2023-07-30T04:44:41;16.70;99.90
12384;DHT22;6256;63.808;20.336;2023-07-30T04:47:06;16.70;99.90
12384;DHT22;6256;63.808;20.336;2023-07-30T04:49:32;16.70;99.90
12384;DHT22;6256;63.808;20.336;2023-07-30T04:52:01;16.70;99.90
12384;DHT22;6256;63.808;20.336;2023-07-30T04:54:27;16.60;99.90
12384;DHT22;6256;63.808;20.336;2023-07-30T04:56:52;16.70;99.90
12384;DHT22;6256;63.808;20.336;2023-07-30T04:59:18;16.60;99.90
12384;DHT22;6256;63.808;20.336;2023-07-30T05:01:44;16.60;99.90
12384;DHT22;6256;63.808;20.336;2023-07-30T05:04:10;16.60;99.90
12384;DHT22;6256;63.808;20.336;2023-07-30T05:06:36;16.70;99.90
12384;DHT22;6256;63.808;20.336;2023-07-30T05:09:01;16.70;99.90
12384;DHT22;6256;63.808;20.336;2023-07-30T05:11:27;16.70;99.90
12384;DHT22;6256;63.808;20.336;2023-07-30T05:13:53;16.80;99.90
12384;DHT22;6256;63.808;20.336;2023-07-30T05:16:18;16.90;99.90
12384;DHT22;6256;63.808;20.336;2023-07-30T05:18:44;17.00;99.90
12384;DHT22;6256;63.808;20.336;2023-07-30T05:21:10;17.10;99.90
12384;DHT22;6256;63.808;20.336;2023-07-30T05:23:36;17.10;99.90
12384;DHT22;6256;63.808;20.336;2023-07-30T05:26:01;17.20;99.90
12384;DHT22;6256;63.808;20.336;2023-07-30T05:28:27;17.20;99.90
12384;DHT22;6256;63.808;20.336;2023-07-30T05:30:53;17.30;99.90
12384;DHT22;6256;63.808;20.336;2023-07-30T05:33:18;17.30;99.90
12384;DHT22;6256;63.808;20.336;2023-07-30T05:35:44;17.30;99.90
12384;DHT22;6256;63.808;20.336;2023-07-30T05:38:11;17.40;99.90
12384;DHT22;6256;63.808;20.336;2023-07-30T05:40:36;17.40;99.90
12384;DHT22;6256;63.808;20.336;2023-07-30T05:43:02;17.50;99.90
12384;DHT22;6256;63.808;20.336;2023-07-30T05:45:29;17.50;99.90
12384;DHT22;6256;63.808;20.336;2023-07-30T05:47:55;17.60;99.90
12384;DHT22;6256;63.808;20.336;2023-07-30T05:50:21;17.60;99.90
12384;DHT22;6256;63.808;20.336;2023-07-30T05:52:47;17.60;99.90
12384;DHT22;6256;63.808;20.336;2023-07-30T05:55:12;17.70;99.90
12384;DHT22;6256;63.808;20.336;2023-07-30T05:57:38;17.70;99.90
12384;DHT22;6256;63.808;20.336;2023-07-30T06:00:04;17.80;99.90
12384;DHT22;6256;63.808;20.336;2023-07-30T06:02:30;17.70;99.90
12384;DHT22;6256;63.808;20.336;2023-07-30T06:04:56;17.80;99.90
12384;DHT22;6256;63.808;20.336;2023-07-30T06:07:21;17.90;99.90
12384;DHT22;6256;63.808;20.336;2023-07-30T06:09:47;17.90;99.90
12384;DHT22;6256;63.808;20.336;2023-07-30T06:12:13;18.00;99.90
12384;DHT22;6256;63.808;20.336;2023-07-30T06:14:38;18.00;99.90
12384;DHT22;6256;63.808;20.336;2023-07-30T06:17:04;18.10;99.90
12384;DHT22;6256;63.808;20.336;2023-07-30T06:19:30;18.20;99.90
12384;DHT22;6256;63.808;20.336;2023-07-30T06:21:56;18.20;99.90
12384;DHT22;6256;63.808;20.336;2023-07-30T06:24:21;18.30;99.90
12384;DHT22;6256;63.808;20.336;2023-07-30T06:26:47;18.30;99.90
12384;DHT22;6256;63.808;20.336;2023-07-30T06:29:13;18.30;99.90
12384;DHT22;6256;63.808;20.336;2023-07-30T06:31:38;18.40;99.90
12384;DHT22;6256;63.808;20.336;2023-07-30T06:34:04;18.40;99.90
12384;DHT22;6256;63.808;20.336;2023-07-30T06:36:30;18.50;99.90
12384;DHT22;6256;63.808;20.336;2023-07-30T06:38:56;18.60;99.90
12384;DHT22;6256;63.808;20.336;2023-07-30T06:41:21;18.60;99.90
12384;DHT22;6256;63.808;20.336;2023-07-30T06:43:47;18.60;99.90
12384;DHT22;6256;63.808;20.336;2023-07-30T06:46:13;18.70;99.90
12384;DHT22;6256;63.808;20.336;2023-07-30T06:48:39;18.70;99.90
12384;DHT22;6256;63.808;20.336;2023-07-30T06:51:09;18.80;99.90
12384;DHT22;6256;63.808;20.336;2023-07-30T06:53:35;18.80;99.90
12384;DHT22;6256;63.808;20.336;2023-07-30T06:56:01;18.80;99.90
12384;DHT22;6256;63.808;20.336;2023-07-30T06:58:27;18.90;99.90
12384;DHT22;6256;63.808;20.336;2023-07-30T07:00:52;19.00;99.90
12384;DHT22;6256;63.808;20.336;2023-07-30T07:03:18;19.10;99.90
12384;DHT22;6256;63.808;20.336;2023-07-30T07:05:44;19.10;99.90
12384;DHT22;6256;63.808;20.336;2023-07-30T07:08:10;19.10;99.90
12384;DHT22;6256;63.808;20.336;2023-07-30T07:10:36;19.20;99.90
12384;DHT22;6256;63.808;20.336;2023-07-30T07:13:01;19.20;99.90
12384;DHT22;6256;63.808;20.336;2023-07-30T07:15:27;19.20;99.90
12384;DHT22;6256;63.808;20.336;2023-07-30T07:17:53;19.30;99.90
12384;DHT22;6256;63.808;20.336;2023-07-30T07:20:18;19.40;99.90
12384;DHT22;6256;63.808;20.336;2023-07-30T07:22:44;19.50;99.90
12384;DHT22;6256;63.808;20.336;2023-07-30T07:25:10;19.50;99.90
12384;DHT22;6256;63.808;20.336;2023-07-30T07:27:36;19.50;99.90
12384;DHT22;6256;63.808;20.336;2023-07-30T07:30:02;19.60;99.90
12384;DHT22;6256;63.808;20.336;2023-07-30T07:32:28;19.60;99.90
12384;DHT22;6256;63.808;20.336;2023-07-30T07:34:54;19.70;99.90
12384;DHT22;6256;63.808;20.336;2023-07-30T07:37:19;19.70;99.90
12384;DHT22;6256;63.808;20.336;2023-07-30T07:39:46;19.80;99.90
12384;DHT22;6256;63.808;20.336;2023-07-30T07:42:12;19.90;99.90
12384;DHT22;6256;63.808;20.336;2023-07-30T07:44:38;20.00;99.90
12384;DHT22;6256;63.808;20.336;2023-07-30T07:47:04;20.10;99.90
12384;DHT22;6256;63.808;20.336;2023-07-30T07:49:29;20.10;99.90
12384;DHT22;6256;63.808;20.336;2023-07-30T07:51:55;20.10;99.90
12384;DHT22;6256;63.808;20.336;2023-07-30T07:54:21;20.00;99.90
12384;DHT22;6256;63.808;20.336;2023-07-30T07:56:47;19.90;99.90
12384;DHT22;6256;63.808;20.336;2023-07-30T07:59:13;19.90;99.90
12384;DHT22;6256;63.808;20.336;2023-07-30T08:01:38;19.90;99.90
12384;DHT22;6256;63.808;20.336;2023-07-30T08:04:04;19.90;99.90
12384;DHT22;6256;63.808;20.336;2023-07-30T08:06:32;20.00;99.90
12384;DHT22;6256;63.808;20.336;2023-07-30T08:08:57;20.10;99.90
12384;DHT22;6256;63.808;20.336;2023-07-30T08:11:23;20.20;99.90
12384;DHT22;6256;63.808;20.336;2023-07-30T08:13:49;20.00;99.90
12384;DHT22;6256;63.808;20.336;2023-07-30T08:16:14;20.10;99.90
12384;DHT22;6256;63.808;20.336;2023-07-30T08:18:40;20.10;99.90
12384;DHT22;6256;63.808;20.336;2023-07-30T08:21:06;20.30;99.90
12384;DHT22;6256;63.808;20.336;2023-07-30T08:23:32;20.50;99.90
12384;DHT22;6256;63.808;20.336;2023-07-30T08:25:57;20.60;99.90
12384;DHT22;6256;63.808;20.336;2023-07-30T08:28:23;20.70;99.90
12384;DHT22;6256;63.808;20.336;2023-07-30T08:30:49;20.80;99.90
12384;DHT22;6256;63.808;20.336;2023-07-30T08:33:15;20.90;99.90
12384;DHT22;6256;63.808;20.336;2023-07-30T08:35:40;21.10;99.90
12384;DHT22;6256;63.808;20.336;2023-07-30T08:38:06;21.50;99.90
12384;DHT22;6256;63.808;20.336;2023-07-30T08:40:32;21.70;99.90
12384;DHT22;6256;63.808;20.336;2023-07-30T08:42:59;21.90;99.90
12384;DHT22;6256;63.808;20.336;2023-07-30T08:45:25;22.20;99.90
12384;DHT22;6256;63.808;20.336;2023-07-30T08:47:51;22.40;99.90
12384;DHT22;6256;63.808;20.336;2023-07-30T08:50:17;22.40;99.90
12384;DHT22;6256;63.808;20.336;2023-07-30T08:52:44;22.30;99.90
12384;DHT22;6256;63.808;20.336;2023-07-30T08:55:10;22.20;99.90
12384;DHT22;6256;63.808;20.336;2023-07-30T08:57:37;22.40;99.90
12384;DHT22;6256;63.808;20.336;2023-07-30T09:00:06;22.40;99.90
12384;DHT22;6256;63.808;20.336;2023-07-30T09:02:48;22.40;99.90
12384;DHT22;6256;63.808;20.336;2023-07-30T09:05:15;22.60;99.90
12384;DHT22;6256;63.808;20.336;2023-07-30T09:07:41;22.60;99.90
12384;DHT22;6256;63.808;20.336;2023-07-30T09:10:07;22.70;99.90
12384;DHT22;6256;63.808;20.336;2023-07-30T09:12:34;22.70;99.90
12384;DHT22;6256;63.808;20.336;2023-07-30T09:15:02;22.70;99.90
12384;DHT22;6256;63.808;20.336;2023-07-30T09:17:30;22.40;99.90
12384;DHT22;6256;63.808;20.336;2023-07-30T09:19:58;22.10;99.90
12384;DHT22;6256;63.808;20.336;2023-07-30T09:22:31;22.40;99.90
12384;DHT22;6256;63.808;20.336;2023-07-30T09:25:07;22.40;99.90
12384;DHT22;6256;63.808;20.336;2023-07-30T09:27:32;22.50;99.90
12384;DHT22;6256;63.808;20.336;2023-07-30T09:30:00;22.30;99.90
12384;DHT22;6256;63.808;20.336;2023-07-30T09:32:30;22.30;99.90
12384;DHT22;6256;63.808;20.336;2023-07-30T09:35:12;22.40;99.90
12384;DHT22;6256;63.808;20.336;2023-07-30T09:37:39;22.30;99.90
12384;DHT22;6256;63.808;20.336;2023-07-30T09:40:07;22.10;99.90
12384;DHT22;6256;63.808;20.336;2023-07-30T09:42:35;22.10;99.90
12384;DHT22;6256;63.808;20.336;2023-07-30T09:45:03;22.40;99.90
12384;DHT22;6256;63.808;20.336;2023-07-30T09:47:33;22.80;99.90
12384;DHT22;6256;63.808;20.336;2023-07-30T09:50:01;22.70;99.90
12384;DHT22;6256;63.808;20.336;2023-07-30T09:52:28;22.50;99.90
12384;DHT22;6256;63.808;20.336;2023-07-30T09:54:57;22.30;99.90
12384;DHT22;6256;63.808;20.336;2023-07-30T09:57:23;22.30;99.90
12384;DHT22;6256;63.808;20.336;2023-07-30T09:59:48;22.60;99.90
12384;DHT22;6256;63.808;20.336;2023-07-30T10:02:15;22.90;99.90
12384;DHT22;6256;63.808;20.336;2023-07-30T10:04:43;22.50;99.90
12384;DHT22;6256;63.808;20.336;2023-07-30T10:07:16;22.50;99.90
12384;DHT22;6256;63.808;20.336;2023-07-30T10:09:45;22.70;99.90
12384;DHT22;6256;63.808;20.336;2023-07-30T10:12:21;22.90;99.90
12384;DHT22;6256;63.808;20.336;2023-07-30T10:14:47;23.00;99.90
12384;DHT22;6256;63.808;20.336;2023-07-30T10:17:13;23.00;99.90
12384;DHT22;6256;63.808;20.336;2023-07-30T10:19:38;23.00;99.90
12384;DHT22;6256;63.808;20.336;2023-07-30T10:24:39;22.80;99.90
12384;DHT22;6256;63.808;20.336;2023-07-30T10:27:06;23.10;99.90
12384;DHT22;6256;63.808;20.336;2023-07-30T10:29:34;23.00;99.90
12384;DHT22;6256;63.808;20.336;2023-07-30T10:32:01;23.10;99.90
12384;DHT22;6256;63.808;20.336;2023-07-30T10:34:44;23.20;99.90
12384;DHT22;6256;63.808;20.336;2023-07-30T10:37:10;23.60;99.90
12384;DHT22;6256;63.808;20.336;2023-07-30T10:39:36;24.00;99.90
12384;DHT22;6256;63.808;20.336;2023-07-30T10:42:02;24.20;99.90
12384;DHT22;6256;63.808;20.336;2023-07-30T10:46:56;24.40;99.90
12384;DHT22;6256;63.808;20.336;2023-07-30T10:49:22;24.50;99.90
12384;DHT22;6256;63.808;20.336;2023-07-30T10:51:48;24.10;99.90
12384;DHT22;6256;63.808;20.336;2023-07-30T10:54:14;24.50;99.90
12384;DHT22;6256;63.808;20.336;2023-07-30T10:56:41;24.80;99.90
12384;DHT22;6256;63.808;20.336;2023-07-30T10:59:08;25.20;99.90
12384;DHT22;6256;63.808;20.336;2023-07-30T11:01:41;25.40;99.90
12384;DHT22;6256;63.808;20.336;2023-07-30T11:04:19;25.90;99.90
12384;DHT22;6256;63.808;20.336;2023-07-30T11:06:50;26.00;99.90
12384;DHT22;6256;63.808;20.336;2023-07-30T11:09:20;26.80;99.90
12384;DHT22;6256;63.808;20.336;2023-07-30T11:11:47;26.90;99.70
12384;DHT22;6256;63.808;20.336;2023-07-30T11:14:17;26.80;97.50
12384;DHT22;6256;63.808;20.336;2023-07-30T11:16:59;26.90;99.20
12384;DHT22;6256;63.808;20.336;2023-07-30T11:19:26;27.70;96.00
12384;DHT22;6256;63.808;20.336;2023-07-30T11:21:53;28.10;94.30
12384;DHT22;6256;63.808;20.336;2023-07-30T11:24:19;28.80;93.60
12384;DHT22;6256;63.808;20.336;2023-07-30T11:26:57;28.90;93.80
12384;DHT22;6256;63.808;20.336;2023-07-30T11:29:23;28.80;91.90
12384;DHT22;6256;63.808;20.336;2023-07-30T11:31:49;28.30;91.40
12384;DHT22;6256;63.808;20.336;2023-07-30T11:34:15;28.00;91.90
12384;DHT22;6256;63.808;20.336;2023-07-30T11:36:42;28.50;91.90
12384;DHT22;6256;63.808;20.336;2023-07-30T11:39:08;28.90;90.80
12384;DHT22;6256;63.808;20.336;2023-07-30T11:44:02;29.50;87.40
12384;DHT22;6256;63.808;20.336;2023-07-30T11:46:27;30.00;88.20
12384;DHT22;6256;63.808;20.336;2023-07-30T11:49:14;30.00;84.80
12384;DHT22;6256;63.808;20.336;2023-07-30T11:51:40;30.20;85.00
12384;DHT22;6256;63.808;20.336;2023-07-30T11:56:33;30.60;79.10
12384;DHT22;6256;63.808;20.336;2023-07-30T11:59:05;30.10;79.50
12384;DHT22;6256;63.808;20.336;2023-07-30T12:01:32;30.20;80.10
12384;DHT22;6256;63.808;20.336;2023-07-30T12:04:04;30.20;80.60
12384;DHT22;6256;63.808;20.336;2023-07-30T12:06:47;29.80;80.60
12384;DHT22;6256;63.808;20.336;2023-07-30T12:09:23;29.40;82.10
12384;DHT22;6256;63.808;20.336;2023-07-30T12:11:58;29.90;80.70
12384;DHT22;6256;63.808;20.336;2023-07-30T12:14:43;30.10;78.90
12384;DHT22;6256;63.808;20.336;2023-07-30T12:17:09;30.10;79.00
12384;DHT22;6256;63.808;20.336;2023-07-30T12:19:35;30.50;78.40
12384;DHT22;6256;63.808;20.336;2023-07-30T12:22:03;30.00;77.60
12384;DHT22;6256;63.808;20.336;2023-07-30T12:24:29;29.70;79.30
12384;DHT22;6256;63.808;20.336;2023-07-30T12:26:55;30.20;76.30
12384;DHT22;6256;63.808;20.336;2023-07-30T12:29:21;30.20;76.50
12384;DHT22;6256;63.808;20.336;2023-07-30T12:31:46;30.70;75.80
12384;DHT22;6256;63.808;20.336;2023-07-30T12:34:13;30.70;76.30
12384;DHT22;6256;63.808;20.336;2023-07-30T12:36:38;30.70;76.50
12384;DHT22;6256;63.808;20.336;2023-07-30T12:39:04;30.70;77.00
12384;DHT22;6256;63.808;20.336;2023-07-30T12:41:31;31.30;74.60
12384;DHT22;6256;63.808;20.336;2023-07-30T12:46:23;31.80;74.30
12384;DHT22;6256;63.808;20.336;2023-07-30T12:48:49;32.10;75.10
12384;DHT22;6256;63.808;20.336;2023-07-30T12:51:15;31.90;75.00
12384;DHT22;6256;63.808;20.336;2023-07-30T12:53:40;31.50;73.50
12384;DHT22;6256;63.808;20.336;2023-07-30T12:56:06;31.20;74.10
12384;DHT22;6256;63.808;20.336;2023-07-30T12:58:32;31.90;73.90
12384;DHT22;6256;63.808;20.336;2023-07-30T13:00:58;32.50;71.70
12384;DHT22;6256;63.808;20.336;2023-07-30T13:03:24;32.40;71.90
12384;DHT22;6256;63.808;20.336;2023-07-30T13:05:50;33.00;71.50
12384;DHT22;6256;63.808;20.336;2023-07-30T13:08:15;31.80;73.70
12384;DHT22;6256;63.808;20.336;2023-07-30T13:10:41;30.60;74.50
12384;DHT22;6256;63.808;20.336;2023-07-30T13:13:07;31.60;73.40
12384;DHT22;6256;63.808;20.336;2023-07-30T13:15:32;32.00;72.70
12384;DHT22;6256;63.808;20.336;2023-07-30T13:17:58;32.50;72.20
12384;DHT22;6256;63.808;20.336;2023-07-30T13:20:24;32.90;70.60
12384;DHT22;6256;63.808;20.336;2023-07-30T13:22:50;33.30;71.60
12384;DHT22;6256;63.808;20.336;2023-07-30T13:25:17;34.00;70.00
12384;DHT22;6256;63.808;20.336;2023-07-30T13:27:43;34.10;68.10
12384;DHT22;6256;63.808;20.336;2023-07-30T13:30:09;33.90;67.50
12384;DHT22;6256;63.808;20.336;2023-07-30T13:32:35;34.00;66.50
12384;DHT22;6256;63.808;20.336;2023-07-30T13:35:00;33.70;66.90
12384;DHT22;6256;63.808;20.336;2023-07-30T13:37:26;34.00;68.00
12384;DHT22;6256;63.808;20.336;2023-07-30T13:39:52;34.50;69.10
12384;DHT22;6256;63.808;20.336;2023-07-30T13:42:17;34.80;66.60
12384;DHT22;6256;63.808;20.336;2023-07-30T13:44:43;34.80;67.20
12384;DHT22;6256;63.808;20.336;2023-07-30T13:47:09;35.20;66.70
12384;DHT22;6256;63.808;20.336;2023-07-30T13:49:35;35.50;66.50
12384;DHT22;6256;63.808;20.336;2023-07-30T13:52:00;35.70;65.40
12384;DHT22;6256;63.808;20.336;2023-07-30T13:54:26;35.60;64.20
12384;DHT22;6256;63.808;20.336;2023-07-30T13:56:52;36.00;65.80
12384;DHT22;6256;63.808;20.336;2023-07-30T13:59:17;35.90;63.90
12384;DHT22;6256;63.808;20.336;2023-07-30T14:01:46;36.20;64.00
12384;DHT22;6256;63.808;20.336;2023-07-30T14:04:11;36.20;64.50
12384;DHT22;6256;63.808;20.336;2023-07-30T14:06:37;36.30;63.20
12384;DHT22;6256;63.808;20.336;2023-07-30T14:09:03;36.50;61.90
12384;DHT22;6256;63.808;20.336;2023-07-30T14:11:30;36.80;62.70
12384;DHT22;6256;63.808;20.336;2023-07-30T14:13:55;36.70;62.80
12384;DHT22;6256;63.808;20.336;2023-07-30T14:16:23;37.00;62.30
12384;DHT22;6256;63.808;20.336;2023-07-30T14:18:49;36.40;59.00
12384;DHT22;6256;63.808;20.336;2023-07-30T14:21:14;36.40;61.30
12384;DHT22;6256;63.808;20.336;2023-07-30T14:23:40;36.50;60.90
12384;DHT22;6256;63.808;20.336;2023-07-30T14:26:06;36.60;62.30
12384;DHT22;6256;63.808;20.336;2023-07-30T14:28:32;36.80;61.70
12384;DHT22;6256;63.808;20.336;2023-07-30T14:30:58;36.20;61.50
12384;DHT22;6256;63.808;20.336;2023-07-30T14:33:24;36.20;64.40
12384;DHT22;6256;63.808;20.336;2023-07-30T14:35:50;36.20;62.10
12384;DHT22;6256;63.808;20.336;2023-07-30T14:38:15;35.50;64.50
12384;DHT22;6256;63.808;20.336;2023-07-30T14:40:42;36.00;64.20
12384;DHT22;6256;63.808;20.336;2023-07-30T14:43:08;36.50;63.40
12384;DHT22;6256;63.808;20.336;2023-07-30T14:45:34;36.50;63.60
12384;DHT22;6256;63.808;20.336;2023-07-30T14:48:00;36.80;64.00
12384;DHT22;6256;63.808;20.336;2023-07-30T14:50:26;36.40;62.90
12384;DHT22;6256;63.808;20.336;2023-07-30T14:52:53;36.20;63.10
12384;DHT22;6256;63.808;20.336;2023-07-30T14:55:18;36.20;63.80
12384;DHT22;6256;63.808;20.336;2023-07-30T15:00:11;37.00;64.00
12384;DHT22;6256;63.808;20.336;2023-07-30T15:02:39;37.10;63.80
12384;DHT22;6256;63.808;20.336;2023-07-30T15:05:06;37.10;63.10
12384;DHT22;6256;63.808;20.336;2023-07-30T15:07:32;37.20;63.50
12384;DHT22;6256;63.808;20.336;2023-07-30T15:09:58;37.30;64.20
12384;DHT22;6256;63.808;20.336;2023-07-30T15:12:24;36.90;63.70
12384;DHT22;6256;63.808;20.336;2023-07-30T15:14:49;37.10;64.20
12384;DHT22;6256;63.808;20.336;2023-07-30T15:17:15;37.20;63.90
12384;DHT22;6256;63.808;20.336;2023-07-30T15:19:41;37.00;63.80
12384;DHT22;6256;63.808;20.336;2023-07-30T15:22:06;36.60;64.00
12384;DHT22;6256;63.808;20.336;2023-07-30T15:24:32;36.20;64.70
12384;DHT22;6256;63.808;20.336;2023-07-30T15:26:58;36.30;64.80
12384;DHT22;6256;63.808;20.336;2023-07-30T15:29:24;36.50;64.40
12384;DHT22;6256;63.808;20.336;2023-07-30T15:31:50;36.70;62.80
12384;DHT22;6256;63.808;20.336;2023-07-30T15:34:17;37.00;62.70
12384;DHT22;6256;63.808;20.336;2023-07-30T15:36:42;37.10;62.50
12384;DHT22;6256;63.808;20.336;2023-07-30T15:39:08;37.50;62.30
12384;DHT22;6256;63.808;20.336;2023-07-30T15:41:34;37.40;62.10
12384;DHT22;6256;63.808;20.336;2023-07-30T15:44:00;37.30;62.10